sensor_id;sensor_type;location;lat;lon;timestamp;P1;durP1;ratioP1;P2;durP2;ratioP2
17997;SDS011;9124;48.144;17.098;2023-01-05T00:01:45;5.47;;;5.00;;
17997;SDS011;9124;48.144;17.098;2023-01-05T00:05:22;5.55;;;5.07;;
17997;SDS011;9124;48.144;17.098;2023-01-05T00:08:58;7.53;;;5.50;;
17997;SDS011;9124;48.144;17.098;2023-01-05T00:12:35;5.35;;;4.95;;
17997;SDS011;9124;48.144;17.098;2023-01-05T00:16:30;6.05;;;5.45;;
17997;SDS011;9124;48.144;17.098;2023-01-05T00:20:24;6.75;;;5.80;;
17997;SDS011;9124;48.144;17.098;2023-01-05T00:24:19;6.22;;;5.45;;
17997;SDS011;9124;48.144;17.098;2023-01-05T00:27:55;6.40;;;5.80;;
17997;SDS011;9124;48.144;17.098;2023-01-05T00:31:33;5.97;;;5.38;;
17997;SDS011;9124;48.144;17.098;2023-01-05T00:35:10;6.45;;;5.30;;
17997;SDS011;9124;48.144;17.098;2023-01-05T00:38:48;5.95;;;5.45;;
17997;SDS011;9124;48.144;17.098;2023-01-05T00:42:24;5.45;;;5.00;;
17997;SDS011;9124;48.144;17.098;2023-01-05T00:46:02;6.53;;;4.25;;
17997;SDS011;9124;48.144;17.098;2023-01-05T00:49:38;5.40;;;5.00;;
17997;SDS011;9124;48.144;17.098;2023-01-05T00:53:15;5.03;;;4.57;;
17997;SDS011;9124;48.144;17.098;2023-01-05T00:56:51;5.15;;;4.75;;
17997;SDS011;9124;48.144;17.098;2023-01-05T01:00:27;5.80;;;5.25;;
17997;SDS011;9124;48.144;17.098;2023-01-05T01:04:04;4.85;;;4.47;;
17997;SDS011;9124;48.144;17.098;2023-01-05T01:07:40;5.25;;;4.75;;
17997;SDS011;9124;48.144;17.098;2023-01-05T01:11:16;4.43;;;4.03;;
17997;SDS011;9124;48.144;17.098;2023-01-05T01:14:54;3.05;;;2.75;;
17997;SDS011;9124;48.144;17.098;2023-01-05T01:18:30;3.15;;;1.90;;
17997;SDS011;9124;48.144;17.098;2023-01-05T01:22:07;1.40;;;1.30;;
17997;SDS011;9124;48.144;17.098;2023-01-05T01:35:01;0.30;;;0.30;;
17997;SDS011;9124;48.144;17.098;2023-01-05T01:38:38;2.00;;;0.20;;
17997;SDS011;9124;48.144;17.098;2023-01-05T01:42:15;0.40;;;0.40;;
17997;SDS011;9124;48.144;17.098;2023-01-05T01:45:53;0.30;;;0.30;;
17997;SDS011;9124;48.144;17.098;2023-01-05T01:49:30;0.20;;;0.20;;
17997;SDS011;9124;48.144;17.098;2023-01-05T01:53:17;0.40;;;0.40;;
17997;SDS011;9124;48.144;17.098;2023-01-05T01:57:04;0.50;;;0.30;;
17997;SDS011;9124;48.144;17.098;2023-01-05T02:00:41;0.17;;;0.17;;
17997;SDS011;9124;48.144;17.098;2023-01-05T02:04:18;0.20;;;0.20;;
17997;SDS011;9124;48.144;17.098;2023-01-05T02:07:56;0.30;;;0.30;;
17997;SDS011;9124;48.144;17.098;2023-01-05T02:15:27;0.30;;;0.30;;
17997;SDS011;9124;48.144;17.098;2023-01-05T02:19:48;0.15;;;0.15;;
17997;SDS011;9124;48.144;17.098;2023-01-05T02:24:06;0.28;;;0.28;;
17997;SDS011;9124;48.144;17.098;2023-01-05T02:31:53;0.25;;;0.25;;
17997;SDS011;9124;48.144;17.098;2023-01-05T02:39:41;0.25;;;0.25;;
17997;SDS011;9124;48.144;17.098;2023-01-05T02:43:24;1.75;;;0.20;;
17997;SDS011;9124;48.144;17.098;2023-01-05T02:47:04;0.20;;;0.20;;
17997;SDS011;9124;48.144;17.098;2023-01-05T02:50:45;0.10;;;0.10;;
17997;SDS011;9124;48.144;17.098;2023-01-05T02:54:37;0.47;;;0.30;;
17997;SDS011;9124;48.144;17.098;2023-01-05T03:02:37;0.20;;;0.20;;
17997;SDS011;9124;48.144;17.098;2023-01-05T03:06:23;0.43;;;0.43;;
17997;SDS011;9124;48.144;17.098;2023-01-05T03:10:08;0.20;;;0.20;;
17997;SDS011;9124;48.144;17.098;2023-01-05T03:14:13;0.10;;;0.10;;
17997;SDS011;9124;48.144;17.098;2023-01-05T03:18:20;0.55;;;0.40;;
17997;SDS011;9124;48.144;17.098;2023-01-05T03:22:02;0.40;;;0.20;;
17997;SDS011;9124;48.144;17.098;2023-01-05T03:26:06;0.50;;;0.10;;
17997;SDS011;9124;48.144;17.098;2023-01-05T03:30:03;0.30;;;0.30;;
17997;SDS011;9124;48.144;17.098;2023-01-05T03:38:02;0.10;;;0.10;;
17997;SDS011;9124;48.144;17.098;2023-01-05T03:42:00;3.35;;;0.20;;
17997;SDS011;9124;48.144;17.098;2023-01-05T03:45:42;0.05;;;0.05;;
17997;SDS011;9124;48.144;17.098;2023-01-05T03:49:29;0.10;;;0.10;;
17997;SDS011;9124;48.144;17.098;2023-01-05T03:53:07;0.10;;;0.10;;
17997;SDS011;9124;48.144;17.098;2023-01-05T03:56:44;0.10;;;0.10;;
17997;SDS011;9124;48.144;17.098;2023-01-05T04:00:22;0.20;;;0.20;;
17997;SDS011;9124;48.144;17.098;2023-01-05T04:04:08;0.43;;;0.20;;
17997;SDS011;9124;48.144;17.098;2023-01-05T04:07:45;0.10;;;0.10;;
17997;SDS011;9124;48.144;17.098;2023-01-05T04:11:22;1.30;;;0.38;;
17997;SDS011;9124;48.144;17.098;2023-01-05T04:15:07;0.20;;;0.20;;
17997;SDS011;9124;48.144;17.098;2023-01-05T04:18:46;0.17;;;0.17;;
17997;SDS011;9124;48.144;17.098;2023-01-05T04:22:26;0.15;;;0.15;;
17997;SDS011;9124;48.144;17.098;2023-01-05T04:26:04;0.10;;;0.10;;
17997;SDS011;9124;48.144;17.098;2023-01-05T04:29:42;1.23;;;0.20;;
17997;SDS011;9124;48.144;17.098;2023-01-05T04:33:21;0.30;;;0.20;;
17997;SDS011;9124;48.144;17.098;2023-01-05T04:36:59;0.10;;;0.10;;
17997;SDS011;9124;48.144;17.098;2023-01-05T04:49:56;0.20;;;0.20;;
17997;SDS011;9124;48.144;17.098;2023-01-05T04:53:33;0.88;;;0.30;;
17997;SDS011;9124;48.144;17.098;2023-01-05T04:57:11;0.52;;;0.10;;
17997;SDS011;9124;48.144;17.098;2023-01-05T05:00:49;0.43;;;0.30;;
17997;SDS011;9124;48.144;17.098;2023-01-05T05:04:26;0.20;;;0.20;;
17997;SDS011;9124;48.144;17.098;2023-01-05T05:08:02;0.17;;;0.17;;
17997;SDS011;9124;48.144;17.098;2023-01-05T05:11:39;0.25;;;0.10;;
17997;SDS011;9124;48.144;17.098;2023-01-05T05:15:17;0.20;;;0.20;;
17997;SDS011;9124;48.144;17.098;2023-01-05T05:18:58;0.43;;;0.10;;
17997;SDS011;9124;48.144;17.098;2023-01-05T05:22:36;0.10;;;0.10;;
17997;SDS011;9124;48.144;17.098;2023-01-05T05:26:13;0.15;;;0.10;;
17997;SDS011;9124;48.144;17.098;2023-01-05T05:29:53;0.40;;;0.30;;
17997;SDS011;9124;48.144;17.098;2023-01-05T05:33:29;0.30;;;0.30;;
17997;SDS011;9124;48.144;17.098;2023-01-05T05:37:06;0.10;;;0.10;;
17997;SDS011;9124;48.144;17.098;2023-01-05T05:40:42;0.30;;;0.30;;
17997;SDS011;9124;48.144;17.098;2023-01-05T05:44:19;0.20;;;0.20;;
17997;SDS011;9124;48.144;17.098;2023-01-05T05:47:55;0.10;;;0.10;;
17997;SDS011;9124;48.144;17.098;2023-01-05T05:51:32;0.10;;;0.10;;
17997;SDS011;9124;48.144;17.098;2023-01-05T05:55:08;1.45;;;0.30;;
17997;SDS011;9124;48.144;17.098;2023-01-05T05:58:45;0.20;;;0.20;;
17997;SDS011;9124;48.144;17.098;2023-01-05T06:02:21;0.20;;;0.20;;
17997;SDS011;9124;48.144;17.098;2023-01-05T06:05:58;0.10;;;0.10;;
17997;SDS011;9124;48.144;17.098;2023-01-05T06:09:35;0.13;;;0.13;;
17997;SDS011;9124;48.144;17.098;2023-01-05T06:13:12;0.20;;;0.20;;
17997;SDS011;9124;48.144;17.098;2023-01-05T06:16:48;0.30;;;0.20;;
17997;SDS011;9124;48.144;17.098;2023-01-05T06:20:24;0.08;;;0.08;;
17997;SDS011;9124;48.144;17.098;2023-01-05T06:33:22;0.45;;;0.28;;
17997;SDS011;9124;48.144;17.098;2023-01-05T06:36:58;0.17;;;0.17;;
17997;SDS011;9124;48.144;17.098;2023-01-05T06:40:34;0.20;;;0.20;;
17997;SDS011;9124;48.144;17.098;2023-01-05T06:44:11;0.10;;;0.10;;
17997;SDS011;9124;48.144;17.098;2023-01-05T06:47:47;0.20;;;0.20;;
17997;SDS011;9124;48.144;17.098;2023-01-05T06:51:23;0.13;;;0.13;;
17997;SDS011;9124;48.144;17.098;2023-01-05T06:55:00;1.67;;;0.10;;
17997;SDS011;9124;48.144;17.098;2023-01-05T06:58:36;0.17;;;0.17;;
17997;SDS011;9124;48.144;17.098;2023-01-05T07:02:13;0.25;;;0.25;;
17997;SDS011;9124;48.144;17.098;2023-01-05T07:05:51;0.10;;;0.10;;
17997;SDS011;9124;48.144;17.098;2023-01-05T07:09:27;0.10;;;0.10;;
17997;SDS011;9124;48.144;17.098;2023-01-05T07:13:03;0.10;;;0.10;;
17997;SDS011;9124;48.144;17.098;2023-01-05T07:16:40;0.10;;;0.10;;
17997;SDS011;9124;48.144;17.098;2023-01-05T07:20:16;0.88;;;0.13;;
17997;SDS011;9124;48.144;17.098;2023-01-05T07:23:53;0.10;;;0.10;;
17997;SDS011;9124;48.144;17.098;2023-01-05T07:27:29;0.10;;;0.10;;
17997;SDS011;9124;48.144;17.098;2023-01-05T07:31:06;0.22;;;0.22;;
17997;SDS011;9124;48.144;17.098;2023-01-05T07:34:42;0.82;;;0.20;;
17997;SDS011;9124;48.144;17.098;2023-01-05T07:38:19;0.13;;;0.13;;
17997;SDS011;9124;48.144;17.098;2023-01-05T07:41:55;0.13;;;0.13;;
17997;SDS011;9124;48.144;17.098;2023-01-05T07:45:34;0.20;;;0.20;;
17997;SDS011;9124;48.144;17.098;2023-01-05T07:49:11;0.10;;;0.10;;
17997;SDS011;9124;48.144;17.098;2023-01-05T07:52:47;0.80;;;0.40;;
17997;SDS011;9124;48.144;17.098;2023-01-05T07:56:24;0.30;;;0.30;;
17997;SDS011;9124;48.144;17.098;2023-01-05T08:00:00;0.30;;;0.30;;
17997;SDS011;9124;48.144;17.098;2023-01-05T08:03:47;0.10;;;0.10;;
17997;SDS011;9124;48.144;17.098;2023-01-05T08:07:24;0.20;;;0.20;;
17997;SDS011;9124;48.144;17.098;2023-01-05T08:11:04;0.35;;;0.35;;
17997;SDS011;9124;48.144;17.098;2023-01-05T08:14:41;0.45;;;0.30;;
17997;SDS011;9124;48.144;17.098;2023-01-05T08:18:18;0.30;;;0.30;;
17997;SDS011;9124;48.144;17.098;2023-01-05T08:21:54;0.43;;;0.43;;
17997;SDS011;9124;48.144;17.098;2023-01-05T08:34:48;0.30;;;0.30;;
17997;SDS011;9124;48.144;17.098;2023-01-05T08:38:25;0.30;;;0.30;;
17997;SDS011;9124;48.144;17.098;2023-01-05T08:42:01;0.25;;;0.20;;
17997;SDS011;9124;48.144;17.098;2023-01-05T08:45:38;0.40;;;0.28;;
17997;SDS011;9124;48.144;17.098;2023-01-05T08:49:14;0.68;;;0.20;;
17997;SDS011;9124;48.144;17.098;2023-01-05T08:52:51;0.40;;;0.40;;
17997;SDS011;9124;48.144;17.098;2023-01-05T08:56:27;0.40;;;0.32;;
17997;SDS011;9124;48.144;17.098;2023-01-05T09:00:04;0.10;;;0.10;;
17997;SDS011;9124;48.144;17.098;2023-01-05T09:03:40;0.10;;;0.10;;
17997;SDS011;9124;48.144;17.098;2023-01-05T09:07:17;0.13;;;0.13;;
17997;SDS011;9124;48.144;17.098;2023-01-05T09:10:53;0.13;;;0.13;;
17997;SDS011;9124;48.144;17.098;2023-01-05T09:14:30;0.10;;;0.10;;
17997;SDS011;9124;48.144;17.098;2023-01-05T09:18:06;0.28;;;0.20;;
17997;SDS011;9124;48.144;17.098;2023-01-05T09:30:56;0.40;;;0.20;;
17997;SDS011;9124;48.144;17.098;2023-01-05T09:34:32;0.73;;;0.13;;
17997;SDS011;9124;48.144;17.098;2023-01-05T09:38:09;0.40;;;0.20;;
17997;SDS011;9124;48.144;17.098;2023-01-05T09:41:46;0.35;;;0.35;;
17997;SDS011;9124;48.144;17.098;2023-01-05T09:45:33;0.30;;;0.30;;
17997;SDS011;9124;48.144;17.098;2023-01-05T09:49:12;0.50;;;0.50;;
17997;SDS011;9124;48.144;17.098;2023-01-05T09:52:50;0.45;;;0.45;;
17997;SDS011;9124;48.144;17.098;2023-01-05T09:56:37;0.40;;;0.40;;
17997;SDS011;9124;48.144;17.098;2023-01-05T10:00:16;0.40;;;0.40;;
17997;SDS011;9124;48.144;17.098;2023-01-05T10:03:54;0.38;;;0.30;;
17997;SDS011;9124;48.144;17.098;2023-01-05T10:25:06;0.88;;;0.43;;
17997;SDS011;9124;48.144;17.098;2023-01-05T10:48:28;0.55;;;0.40;;
17997;SDS011;9124;48.144;17.098;2023-01-05T10:52:16;1.63;;;0.43;;
17997;SDS011;9124;48.144;17.098;2023-01-05T10:59:31;0.75;;;0.50;;
17997;SDS011;9124;48.144;17.098;2023-01-05T11:03:11;0.60;;;0.47;;
17997;SDS011;9124;48.144;17.098;2023-01-05T11:06:50;2.42;;;0.45;;
17997;SDS011;9124;48.144;17.098;2023-01-05T11:19:52;1.95;;;0.52;;
17997;SDS011;9124;48.144;17.098;2023-01-05T11:23:35;2.85;;;0.50;;
17997;SDS011;9124;48.144;17.098;2023-01-05T11:27:34;0.98;;;0.45;;
17997;SDS011;9124;48.144;17.098;2023-01-05T11:31:12;1.27;;;0.55;;
17997;SDS011;9124;48.144;17.098;2023-01-05T11:34:48;3.22;;;0.90;;
17997;SDS011;9124;48.144;17.098;2023-01-05T11:38:27;0.70;;;0.50;;
17997;SDS011;9124;48.144;17.098;2023-01-05T11:45:57;1.88;;;0.90;;
17997;SDS011;9124;48.144;17.098;2023-01-05T11:49:36;2.92;;;0.90;;
17997;SDS011;9124;48.144;17.098;2023-01-05T11:53:23;1.52;;;0.77;;
17997;SDS011;9124;48.144;17.098;2023-01-05T11:57:16;4.38;;;0.88;;
17997;SDS011;9124;48.144;17.098;2023-01-05T12:13:52;0.85;;;0.50;;
17997;SDS011;9124;48.144;17.098;2023-01-05T12:26:00;1.15;;;0.90;;
17997;SDS011;9124;48.144;17.098;2023-01-05T12:29:49;2.53;;;0.73;;
17997;SDS011;9124;48.144;17.098;2023-01-05T12:44:40;1.38;;;1.02;;
17997;SDS011;9124;48.144;17.098;2023-01-05T12:52:28;1.95;;;0.93;;
17997;SDS011;9124;48.144;17.098;2023-01-05T12:56:13;2.15;;;0.93;;
17997;SDS011;9124;48.144;17.098;2023-01-05T13:00:08;2.20;;;0.73;;
17997;SDS011;9124;48.144;17.098;2023-01-05T13:03:47;5.07;;;0.88;;
17997;SDS011;9124;48.144;17.098;2023-01-05T13:07:40;3.20;;;0.80;;
17997;SDS011;9124;48.144;17.098;2023-01-05T13:11:24;1.80;;;0.93;;
17997;SDS011;9124;48.144;17.098;2023-01-05T13:15:14;2.38;;;0.85;;
17997;SDS011;9124;48.144;17.098;2023-01-05T13:19:47;3.85;;;0.93;;
17997;SDS011;9124;48.144;17.098;2023-01-05T13:23:05;3.63;;;0.90;;
17997;SDS011;9124;48.144;17.098;2023-01-05T13:26:51;2.00;;;0.90;;
17997;SDS011;9124;48.144;17.098;2023-01-05T13:30:28;1.73;;;0.65;;
17997;SDS011;9124;48.144;17.098;2023-01-05T13:34:16;1.92;;;0.80;;
17997;SDS011;9124;48.144;17.098;2023-01-05T13:38:18;3.75;;;0.85;;
17997;SDS011;9124;48.144;17.098;2023-01-05T13:46:38;1.30;;;0.65;;
17997;SDS011;9124;48.144;17.098;2023-01-05T13:54:39;2.58;;;1.08;;
17997;SDS011;9124;48.144;17.098;2023-01-05T14:02:34;5.97;;;0.90;;
17997;SDS011;9124;48.144;17.098;2023-01-05T14:06:34;1.50;;;0.88;;
17997;SDS011;9124;48.144;17.098;2023-01-05T14:10:21;2.85;;;0.65;;
17997;SDS011;9124;48.144;17.098;2023-01-05T14:18:49;0.75;;;0.75;;
17997;SDS011;9124;48.144;17.098;2023-01-05T14:22:34;1.73;;;0.93;;
17997;SDS011;9124;48.144;17.098;2023-01-05T14:26:57;1.30;;;0.60;;
17997;SDS011;9124;48.144;17.098;2023-01-05T14:30:39;1.95;;;0.70;;
17997;SDS011;9124;48.144;17.098;2023-01-05T14:34:15;2.35;;;0.70;;
17997;SDS011;9124;48.144;17.098;2023-01-05T14:41:32;1.77;;;0.68;;
17997;SDS011;9124;48.144;17.098;2023-01-05T14:45:22;2.88;;;0.55;;
17997;SDS011;9124;48.144;17.098;2023-01-05T14:49:04;2.13;;;0.70;;
17997;SDS011;9124;48.144;17.098;2023-01-05T14:53:02;1.33;;;0.60;;
17997;SDS011;9124;48.144;17.098;2023-01-05T14:56:42;1.20;;;0.80;;
17997;SDS011;9124;48.144;17.098;2023-01-05T15:00:58;0.47;;;0.47;;
17997;SDS011;9124;48.144;17.098;2023-01-05T15:04:36;2.83;;;0.90;;
17997;SDS011;9124;48.144;17.098;2023-01-05T15:08:20;0.93;;;0.60;;
17997;SDS011;9124;48.144;17.098;2023-01-05T15:20:00;3.00;;;0.88;;
17997;SDS011;9124;48.144;17.098;2023-01-05T15:27:53;0.88;;;0.63;;
17997;SDS011;9124;48.144;17.098;2023-01-05T15:35:51;1.15;;;0.85;;
17997;SDS011;9124;48.144;17.098;2023-01-05T15:39:43;0.63;;;0.50;;
17997;SDS011;9124;48.144;17.098;2023-01-05T15:43:25;3.92;;;0.80;;
17997;SDS011;9124;48.144;17.098;2023-01-05T15:47:03;2.40;;;0.60;;
17997;SDS011;9124;48.144;17.098;2023-01-05T15:50:44;0.80;;;0.50;;
17997;SDS011;9124;48.144;17.098;2023-01-05T15:54:25;2.05;;;0.80;;
17997;SDS011;9124;48.144;17.098;2023-01-05T15:58:03;2.75;;;0.93;;
17997;SDS011;9124;48.144;17.098;2023-01-05T16:10:53;1.55;;;0.90;;
17997;SDS011;9124;48.144;17.098;2023-01-05T16:14:39;1.77;;;0.60;;
17997;SDS011;9124;48.144;17.098;2023-01-05T16:18:21;3.33;;;0.73;;
17997;SDS011;9124;48.144;17.098;2023-01-05T16:22:14;1.10;;;0.90;;
17997;SDS011;9124;48.144;17.098;2023-01-05T16:25:55;1.92;;;1.05;;
17997;SDS011;9124;48.144;17.098;2023-01-05T16:29:34;0.63;;;0.60;;
17997;SDS011;9124;48.144;17.098;2023-01-05T16:37:35;2.50;;;0.65;;
17997;SDS011;9124;48.144;17.098;2023-01-05T16:41:13;2.10;;;0.82;;
17997;SDS011;9124;48.144;17.098;2023-01-05T16:45:05;1.30;;;0.47;;
17997;SDS011;9124;48.144;17.098;2023-01-05T16:49:03;1.55;;;0.73;;
17997;SDS011;9124;48.144;17.098;2023-01-05T16:53:09;1.33;;;0.52;;
17997;SDS011;9124;48.144;17.098;2023-01-05T16:56:49;0.75;;;0.68;;
17997;SDS011;9124;48.144;17.098;2023-01-05T17:00:31;1.50;;;1.02;;
17997;SDS011;9124;48.144;17.098;2023-01-05T17:04:10;2.45;;;0.60;;
17997;SDS011;9124;48.144;17.098;2023-01-05T17:08:09;3.20;;;0.73;;
17997;SDS011;9124;48.144;17.098;2023-01-05T17:11:53;0.70;;;0.55;;
17997;SDS011;9124;48.144;17.098;2023-01-05T17:15:31;0.50;;;0.50;;
17997;SDS011;9124;48.144;17.098;2023-01-05T17:19:19;0.80;;;0.60;;
17997;SDS011;9124;48.144;17.098;2023-01-05T17:22:56;1.38;;;0.70;;
17997;SDS011;9124;48.144;17.098;2023-01-05T17:26:33;0.80;;;0.50;;
17997;SDS011;9124;48.144;17.098;2023-01-05T17:30:14;0.50;;;0.50;;
17997;SDS011;9124;48.144;17.098;2023-01-05T17:33:55;1.17;;;0.68;;
17997;SDS011;9124;48.144;17.098;2023-01-05T17:37:31;0.68;;;0.57;;
17997;SDS011;9124;48.144;17.098;2023-01-05T17:50:26;1.10;;;0.55;;
17997;SDS011;9124;48.144;17.098;2023-01-05T17:54:05;4.20;;;0.98;;
17997;SDS011;9124;48.144;17.098;2023-01-05T18:06:59;1.83;;;0.63;;
17997;SDS011;9124;48.144;17.098;2023-01-05T18:10:36;2.00;;;0.75;;
17997;SDS011;9124;48.144;17.098;2023-01-05T18:14:13;0.70;;;0.65;;
17997;SDS011;9124;48.144;17.098;2023-01-05T18:17:50;0.95;;;0.90;;
17997;SDS011;9124;48.144;17.098;2023-01-05T18:21:26;0.77;;;0.65;;
17997;SDS011;9124;48.144;17.098;2023-01-05T18:25:02;0.70;;;0.50;;
17997;SDS011;9124;48.144;17.098;2023-01-05T18:28:39;7.80;;;0.68;;
17997;SDS011;9124;48.144;17.098;2023-01-05T18:32:15;1.45;;;0.63;;
17997;SDS011;9124;48.144;17.098;2023-01-05T18:35:52;1.95;;;0.63;;
17997;SDS011;9124;48.144;17.098;2023-01-05T18:39:29;2.47;;;0.68;;
17997;SDS011;9124;48.144;17.098;2023-01-05T18:43:05;1.75;;;0.65;;
17997;SDS011;9124;48.144;17.098;2023-01-05T18:56:03;6.57;;;1.08;;
17997;SDS011;9124;48.144;17.098;2023-01-05T18:59:41;1.75;;;0.75;;
17997;SDS011;9124;48.144;17.098;2023-01-05T19:03:17;3.42;;;0.90;;
17997;SDS011;9124;48.144;17.098;2023-01-05T19:06:54;0.75;;;0.60;;
17997;SDS011;9124;48.144;17.098;2023-01-05T19:10:30;1.50;;;0.60;;
17997;SDS011;9124;48.144;17.098;2023-01-05T19:14:07;2.13;;;0.70;;
17997;SDS011;9124;48.144;17.098;2023-01-05T19:26:52;2.28;;;0.93;;
17997;SDS011;9124;48.144;17.098;2023-01-05T19:30:29;0.70;;;0.70;;
17997;SDS011;9124;48.144;17.098;2023-01-05T19:34:05;1.10;;;0.70;;
17997;SDS011;9124;48.144;17.098;2023-01-05T19:37:42;7.63;;;0.50;;
17997;SDS011;9124;48.144;17.098;2023-01-05T19:41:21;0.90;;;0.68;;
17997;SDS011;9124;48.144;17.098;2023-01-05T19:44:59;2.08;;;0.88;;
17997;SDS011;9124;48.144;17.098;2023-01-05T19:48:37;2.33;;;0.55;;
17997;SDS011;9124;48.144;17.098;2023-01-05T19:52:16;1.27;;;0.98;;
17997;SDS011;9124;48.144;17.098;2023-01-05T19:55:53;0.82;;;0.70;;
17997;SDS011;9124;48.144;17.098;2023-01-05T19:59:29;0.68;;;0.68;;
17997;SDS011;9124;48.144;17.098;2023-01-05T20:03:08;0.80;;;0.50;;
17997;SDS011;9124;48.144;17.098;2023-01-05T20:06:44;3.47;;;0.63;;
17997;SDS011;9124;48.144;17.098;2023-01-05T20:10:21;1.00;;;0.75;;
17997;SDS011;9124;48.144;17.098;2023-01-05T20:13:57;1.15;;;0.73;;
17997;SDS011;9124;48.144;17.098;2023-01-05T20:17:33;0.95;;;0.70;;
17997;SDS011;9124;48.144;17.098;2023-01-05T20:21:10;2.63;;;0.70;;
17997;SDS011;9124;48.144;17.098;2023-01-05T20:24:46;0.70;;;0.45;;
17997;SDS011;9124;48.144;17.098;2023-01-05T20:28:23;0.95;;;0.60;;
17997;SDS011;9124;48.144;17.098;2023-01-05T20:32:01;6.20;;;0.73;;
17997;SDS011;9124;48.144;17.098;2023-01-05T20:35:42;0.50;;;0.35;;
17997;SDS011;9124;48.144;17.098;2023-01-05T20:39:20;1.23;;;0.93;;
17997;SDS011;9124;48.144;17.098;2023-01-05T20:42:56;1.15;;;0.90;;
17997;SDS011;9124;48.144;17.098;2023-01-05T20:46:35;1.65;;;0.80;;
17997;SDS011;9124;48.144;17.098;2023-01-05T20:50:13;2.58;;;0.80;;
17997;SDS011;9124;48.144;17.098;2023-01-05T20:53:50;3.78;;;0.70;;
17997;SDS011;9124;48.144;17.098;2023-01-05T20:57:27;4.22;;;0.77;;
17997;SDS011;9124;48.144;17.098;2023-01-05T21:01:04;3.97;;;0.90;;
17997;SDS011;9124;48.144;17.098;2023-01-05T21:04:41;1.02;;;0.77;;
17997;SDS011;9124;48.144;17.098;2023-01-05T21:08:17;0.93;;;0.85;;
17997;SDS011;9124;48.144;17.098;2023-01-05T21:11:54;2.25;;;0.80;;
17997;SDS011;9124;48.144;17.098;2023-01-05T21:15:31;1.23;;;0.68;;
17997;SDS011;9124;48.144;17.098;2023-01-05T21:19:08;1.73;;;0.70;;
17997;SDS011;9124;48.144;17.098;2023-01-05T21:22:47;0.90;;;0.60;;
17997;SDS011;9124;48.144;17.098;2023-01-05T21:26:24;1.52;;;0.80;;
17997;SDS011;9124;48.144;17.098;2023-01-05T21:30:01;0.82;;;0.55;;
17997;SDS011;9124;48.144;17.098;2023-01-05T21:38:17;1.10;;;0.80;;
17997;SDS011;9124;48.144;17.098;2023-01-05T21:41:54;1.75;;;0.82;;
17997;SDS011;9124;48.144;17.098;2023-01-05T21:45:49;1.08;;;0.80;;
17997;SDS011;9124;48.144;17.098;2023-01-05T21:49:25;3.00;;;0.70;;
17997;SDS011;9124;48.144;17.098;2023-01-05T21:53:02;2.60;;;1.00;;
17997;SDS011;9124;48.144;17.098;2023-01-05T21:56:58;0.98;;;0.60;;
17997;SDS011;9124;48.144;17.098;2023-01-05T22:00:35;0.95;;;0.75;;
17997;SDS011;9124;48.144;17.098;2023-01-05T22:04:11;2.53;;;0.85;;
17997;SDS011;9124;48.144;17.098;2023-01-05T22:07:47;1.42;;;1.10;;
17997;SDS011;9124;48.144;17.098;2023-01-05T22:11:24;2.65;;;1.02;;
17997;SDS011;9124;48.144;17.098;2023-01-05T22:15:00;1.35;;;0.90;;
17997;SDS011;9124;48.144;17.098;2023-01-05T22:18:37;2.35;;;1.00;;
17997;SDS011;9124;48.144;17.098;2023-01-05T22:22:13;2.17;;;1.00;;
17997;SDS011;9124;48.144;17.098;2023-01-05T22:26:01;0.80;;;0.80;;
17997;SDS011;9124;48.144;17.098;2023-01-05T22:29:45;3.13;;;0.80;;
17997;SDS011;9124;48.144;17.098;2023-01-05T22:33:21;1.83;;;0.98;;
17997;SDS011;9124;48.144;17.098;2023-01-05T22:36:57;3.38;;;0.88;;
17997;SDS011;9124;48.144;17.098;2023-01-05T22:40:34;3.33;;;0.98;;
17997;SDS011;9124;48.144;17.098;2023-01-05T22:44:10;2.08;;;0.98;;
17997;SDS011;9124;48.144;17.098;2023-01-05T22:47:47;1.40;;;1.20;;
17997;SDS011;9124;48.144;17.098;2023-01-05T22:51:25;2.92;;;1.00;;
17997;SDS011;9124;48.144;17.098;2023-01-05T22:55:11;2.67;;;1.15;;
17997;SDS011;9124;48.144;17.098;2023-01-05T22:58:48;2.17;;;0.77;;
17997;SDS011;9124;48.144;17.098;2023-01-05T23:02:24;1.77;;;0.98;;
17997;SDS011;9124;48.144;17.098;2023-01-05T23:06:00;1.20;;;1.10;;
17997;SDS011;9124;48.144;17.098;2023-01-05T23:09:37;1.92;;;1.20;;
17997;SDS011;9124;48.144;17.098;2023-01-05T23:13:14;3.85;;;1.20;;
17997;SDS011;9124;48.144;17.098;2023-01-05T23:16:50;0.77;;;0.73;;
17997;SDS011;9124;48.144;17.098;2023-01-05T23:20:26;4.25;;;0.90;;
17997;SDS011;9124;48.144;17.098;2023-01-05T23:33:17;2.20;;;1.13;;
17997;SDS011;9124;48.144;17.098;2023-01-05T23:36:55;3.47;;;0.80;;
17997;SDS011;9124;48.144;17.098;2023-01-05T23:40:31;5.35;;;1.20;;
17997;SDS011;9124;48.144;17.098;2023-01-05T23:44:07;3.97;;;1.23;;
17997;SDS011;9124;48.144;17.098;2023-01-05T23:47:46;1.45;;;1.27;;
17997;SDS011;9124;48.144;17.098;2023-01-05T23:51:22;1.30;;;1.08;;
17997;SDS011;9124;48.144;17.098;2023-01-05T23:54:59;1.70;;;1.27;;
17997;SDS011;9124;48.144;17.098;2023-01-05T23:58:35;2.42;;;1.05;;
